Ana Sayfa
METAR-TAF:

METAR-TAF

Havaalanları :

Plymouth Municipal Airport

Plymouth, Massachusetts, Amerika Birleşik Devletleri

Enlem: 41-54-31N, Boylam: 070-43-41W, yükseklik: 45 m

Güncel hava durumu gözlemi

Rapor saat 21:52 UTC de 46 dakika önce yapıldı.
Rüzgar batıdan 21 kt ve 31 kt'a kadar ani rüzgarlar
Sıcaklık 4°C
Nem 41%
Basınç 997 hPa
Görüş mesafesi: 16.1 km
Açık gökyüzü

METAR: KPYM 272152Z AUTO 28021G31KT 10SM CLR 04/M08 A2944 RMK AO2 PK WND 28031/2147 PRESRR SLP971 T00391078

Saat: 17:38 (22:38 UTC)


TAF: eksik

4.000'den fazla havaalanı için hava durumu gözlemleri ve tahminleri (METAR ve TAF raporları).

Kullanılabilir istasyonlar harita üzerinde sarı ve kırmızı noktalarla gösterilir.

İstasyonun adını görmek için fareyi noktanın üzerinde gezdirin.

Sonrasında hava gözlem ve tahminlerini görmek için tıklayın.

Haritayı değiştirmek için: yaklaştırmak için siyah artı işaretli yeşil düğmeye ve uzaklaştırmak için de eksi işaretli düğmeye hızla tıklayın; bitişik haritalar için yeşil okları kullanın.


METAR-TAF: